createdAt,value
2023-01-19T00:00:23.361Z,1.70
2023-01-19T00:01:05.317Z,1.60
2023-01-19T00:01:47.501Z,1.50
2023-01-19T00:02:29.485Z,1.70
2023-01-19T00:03:15.963Z,1.70
2023-01-19T00:03:58.088Z,1.70
2023-01-19T00:04:39.891Z,1.70
2023-01-19T00:05:21.979Z,1.70
2023-01-19T00:06:10.119Z,1.70
2023-01-19T00:06:51.976Z,1.60
2023-01-19T00:07:34.068Z,1.40
2023-01-19T00:08:58.082Z,1.60
2023-01-19T00:09:40.031Z,1.70
2023-01-19T00:10:21.793Z,1.50
2023-01-19T00:11:03.807Z,1.70
2023-01-19T00:11:47.874Z,1.60
2023-01-19T00:12:32.027Z,1.70
2023-01-19T00:13:15.252Z,1.70
2023-01-19T00:13:57.814Z,1.70
2023-01-19T00:14:39.565Z,1.70
2023-01-19T00:15:21.330Z,1.70
2023-01-19T00:16:03.108Z,1.80
2023-01-19T00:16:44.889Z,1.90
2023-01-19T00:17:26.824Z,1.90
2023-01-19T00:18:10.639Z,1.70
2023-01-19T00:18:53.222Z,1.90
2023-01-19T00:19:34.980Z,2.00
2023-01-19T00:20:17.275Z,1.70
2023-01-19T00:20:59.008Z,2.00
2023-01-19T00:21:40.909Z,1.80
2023-01-19T00:22:22.797Z,1.80
2023-01-19T00:23:04.806Z,1.90
2023-01-19T00:23:47.563Z,2.00
2023-01-19T00:24:29.329Z,1.90
2023-01-19T00:25:11.234Z,1.90
2023-01-19T00:25:53.063Z,2.30
2023-01-19T00:26:34.780Z,1.90
2023-01-19T00:27:16.548Z,2.00
2023-01-19T00:28:00.535Z,2.00
2023-01-19T00:28:44.244Z,1.90
2023-01-19T00:30:12.156Z,2.10
2023-01-19T00:30:53.930Z,3.30
2023-01-19T00:31:35.893Z,2.20
2023-01-19T00:32:17.946Z,2.10
2023-01-19T00:33:00.355Z,2.00
2023-01-19T00:33:42.305Z,2.00
2023-01-19T00:34:24.248Z,2.10
2023-01-19T00:35:06.340Z,2.20
2023-01-19T00:35:52.713Z,2.10
2023-01-19T00:36:34.939Z,2.20
2023-01-19T00:37:17.435Z,2.20
2023-01-19T00:37:59.874Z,2.20
2023-01-19T00:38:41.736Z,2.30
2023-01-19T00:39:23.438Z,2.20
2023-01-19T00:40:05.796Z,2.20
2023-01-19T00:40:48.100Z,2.30
2023-01-19T00:41:48.279Z,2.10
2023-01-19T00:42:44.167Z,2.30
2023-01-19T00:43:25.941Z,2.10
2023-01-19T00:44:07.941Z,2.30
2023-01-19T00:44:51.958Z,2.30
2023-01-19T00:45:37.151Z,2.20
2023-01-19T00:46:18.909Z,2.40
2023-01-19T00:47:01.018Z,2.10
2023-01-19T00:47:42.924Z,2.20
2023-01-19T00:48:27.120Z,2.40
2023-01-19T00:49:09.106Z,2.40
2023-01-19T00:49:50.965Z,2.30
2023-01-19T00:50:35.984Z,2.10
2023-01-19T00:51:20.044Z,2.40
2023-01-19T00:52:01.831Z,2.40
2023-01-19T00:52:44.500Z,2.50
2023-01-19T00:53:32.280Z,2.30
2023-01-19T00:54:14.644Z,2.20
2023-01-19T00:54:56.471Z,2.30
2023-01-19T00:55:38.245Z,2.20
2023-01-19T00:56:20.033Z,2.30
2023-01-19T00:57:02.170Z,2.50
2023-01-19T00:57:44.096Z,2.30
2023-01-19T00:58:26.055Z,2.70
2023-01-19T00:59:10.346Z,1.90
2023-01-19T00:59:52.157Z,2.30
2023-01-19T01:00:34.080Z,2.30
2023-01-19T01:01:18.537Z,2.20
2023-01-19T01:02:00.689Z,3.70
2023-01-19T01:02:44.248Z,2.10
2023-01-19T01:03:30.121Z,2.20
2023-01-19T01:04:13.674Z,2.30
2023-01-19T01:04:56.744Z,2.20
2023-01-19T01:05:41.928Z,2.30
2023-01-19T01:06:24.150Z,2.30
2023-01-19T01:07:06.966Z,2.30
2023-01-19T01:07:52.234Z,2.10
2023-01-19T01:08:34.980Z,2.30
2023-01-19T01:09:16.713Z,2.50
2023-01-19T01:09:58.496Z,2.20
2023-01-19T01:10:40.384Z,2.20
2023-01-19T01:11:22.188Z,2.10
2023-01-19T01:12:04.330Z,2.30
2023-01-19T01:12:56.316Z,2.20
2023-01-19T01:13:40.636Z,2.30
2023-01-19T01:14:25.182Z,2.10
2023-01-19T01:15:09.257Z,2.20
2023-01-19T01:15:52.754Z,2.10
2023-01-19T01:16:34.654Z,2.20
2023-01-19T01:17:16.769Z,2.00
2023-01-19T01:17:58.492Z,1.90
2023-01-19T01:18:40.193Z,2.00
2023-01-19T01:19:22.182Z,2.20
2023-01-19T01:20:07.536Z,2.40
2023-01-19T01:20:49.611Z,2.20
2023-01-19T01:21:31.465Z,2.30
2023-01-19T01:22:13.214Z,2.20
2023-01-19T01:22:55.488Z,2.70
2023-01-19T01:23:37.231Z,2.20
2023-01-19T01:24:19.119Z,2.20
2023-01-19T01:25:03.291Z,1.70
2023-01-19T01:25:46.598Z,2.30
2023-01-19T01:26:28.570Z,2.10
2023-01-19T01:27:12.051Z,1.90
2023-01-19T01:27:54.663Z,1.90
2023-01-19T01:28:36.531Z,2.00
2023-01-19T01:29:18.268Z,2.00
2023-01-19T01:30:00.110Z,1.90
2023-01-19T01:30:43.339Z,2.10
2023-01-19T01:31:25.833Z,2.00
2023-01-19T01:32:08.434Z,1.90
2023-01-19T01:32:50.410Z,2.00
2023-01-19T01:33:40.624Z,2.10
2023-01-19T01:34:23.460Z,2.00
2023-01-19T01:35:05.808Z,2.00
2023-01-19T01:35:49.694Z,2.00
2023-01-19T01:36:33.427Z,2.20
2023-01-19T01:37:15.176Z,2.30
2023-01-19T01:37:59.075Z,2.10
2023-01-19T01:38:41.376Z,2.20
2023-01-19T01:39:23.165Z,2.20
2023-01-19T01:40:06.453Z,2.40
2023-01-19T01:40:48.166Z,2.30
2023-01-19T01:41:30.218Z,2.30
2023-01-19T01:42:18.307Z,2.60
2023-01-19T01:43:00.417Z,4.50
2023-01-19T01:43:50.610Z,2.20
2023-01-19T01:44:50.450Z,2.40
2023-01-19T01:45:35.672Z,2.20
2023-01-19T01:46:17.974Z,2.50
2023-01-19T01:47:00.385Z,2.20
2023-01-19T01:47:48.576Z,2.60
2023-01-19T01:48:31.217Z,2.50
2023-01-19T01:49:17.701Z,2.60
2023-01-19T01:50:10.113Z,2.50
2023-01-19T01:51:15.268Z,2.60
2023-01-19T01:51:57.173Z,2.60
2023-01-19T01:53:07.433Z,2.40
2023-01-19T01:54:04.284Z,2.60
2023-01-19T01:54:46.248Z,2.60
2023-01-19T01:55:31.123Z,2.90
2023-01-19T01:56:18.145Z,2.40
2023-01-19T01:57:49.861Z,2.50
2023-01-19T01:58:34.134Z,3.40
2023-01-19T01:59:26.135Z,2.30
2023-01-19T02:00:09.155Z,2.40
2023-01-19T02:01:09.616Z,2.70
2023-01-19T02:02:19.259Z,2.20
2023-01-19T02:03:01.383Z,2.30
2023-01-19T02:03:43.489Z,2.20
2023-01-19T02:04:25.627Z,2.50
2023-01-19T02:05:32.146Z,2.30
2023-01-19T02:06:14.777Z,2.60
2023-01-19T02:07:15.474Z,2.20
2023-01-19T02:08:37.916Z,2.30
2023-01-19T02:09:41.136Z,2.30
2023-01-19T02:10:41.650Z,3.90
2023-01-19T02:11:42.107Z,2.10
2023-01-19T02:12:42.814Z,3.00
2023-01-19T02:13:25.528Z,2.00
2023-01-19T02:14:07.290Z,2.00
2023-01-19T02:14:51.155Z,2.10
2023-01-19T02:15:35.416Z,2.20
2023-01-19T02:16:17.750Z,2.30
2023-01-19T02:16:59.664Z,1.80
2023-01-19T02:18:27.036Z,2.00
2023-01-19T02:19:13.762Z,2.00
2023-01-19T02:19:56.235Z,2.00
2023-01-19T02:20:41.819Z,1.80
2023-01-19T02:21:36.327Z,2.10
2023-01-19T02:22:32.061Z,2.10
2023-01-19T02:23:23.388Z,2.10
2023-01-19T02:24:06.540Z,3.30
2023-01-19T02:24:50.095Z,2.10
2023-01-19T02:25:32.584Z,2.10
2023-01-19T02:26:45.983Z,2.10
2023-01-19T02:27:27.939Z,2.10
2023-01-19T02:28:10.402Z,2.10
2023-01-19T02:29:04.254Z,2.00
2023-01-19T02:29:46.376Z,2.50
2023-01-19T02:30:28.562Z,1.90
2023-01-19T02:31:10.717Z,2.00
2023-01-19T02:31:53.901Z,2.00
2023-01-19T02:32:35.982Z,2.00
2023-01-19T02:33:17.878Z,1.80
2023-01-19T02:34:01.864Z,2.00
2023-01-19T02:34:43.662Z,1.90
2023-01-19T02:35:25.947Z,1.90
2023-01-19T02:36:10.838Z,1.90
2023-01-19T02:37:15.617Z,1.80
2023-01-19T02:37:58.721Z,1.90
2023-01-19T02:38:41.708Z,1.90
2023-01-19T02:39:45.662Z,1.80
2023-01-19T02:40:28.503Z,2.00
2023-01-19T02:41:15.249Z,1.80
2023-01-19T02:42:02.759Z,1.60
2023-01-19T02:43:00.429Z,1.90
2023-01-19T02:43:43.723Z,3.60
2023-01-19T02:45:12.766Z,1.90
2023-01-19T02:46:38.832Z,2.10
2023-01-19T02:47:20.843Z,1.30
2023-01-19T02:48:02.648Z,1.90
2023-01-19T02:48:44.413Z,1.80
2023-01-19T02:49:29.084Z,1.80
2023-01-19T02:50:38.014Z,1.80
2023-01-19T02:51:25.849Z,1.80
2023-01-19T02:52:15.512Z,1.80
2023-01-19T02:53:07.451Z,1.70
2023-01-19T02:54:26.611Z,2.20
2023-01-19T02:55:20.625Z,1.80
2023-01-19T02:56:29.901Z,2.20
2023-01-19T02:57:34.479Z,1.80
2023-01-19T02:58:33.555Z,1.90
2023-01-19T02:59:30.556Z,1.90
2023-01-19T03:00:52.860Z,1.80
2023-01-19T03:01:51.698Z,1.90
2023-01-19T03:03:03.393Z,2.00
2023-01-19T03:03:56.118Z,2.40
2023-01-19T03:05:05.106Z,1.80
2023-01-19T03:06:06.462Z,1.70
2023-01-19T03:06:52.624Z,1.70
2023-01-19T03:07:54.484Z,2.10
2023-01-19T03:08:47.562Z,1.90
2023-01-19T03:09:38.481Z,1.80
2023-01-19T03:10:40.816Z,1.90
2023-01-19T03:11:27.494Z,1.70
2023-01-19T03:12:16.415Z,1.80
2023-01-19T03:13:21.618Z,1.80
2023-01-19T03:14:13.071Z,1.70
2023-01-19T03:15:00.839Z,1.80
2023-01-19T03:16:01.997Z,1.80
2023-01-19T03:16:51.477Z,2.10
2023-01-19T03:17:35.919Z,1.70
2023-01-19T03:18:23.109Z,1.60
2023-01-19T03:19:17.734Z,1.60
2023-01-19T03:20:44.079Z,1.60
2023-01-19T03:21:30.349Z,1.70
2023-01-19T03:22:27.539Z,1.60
2023-01-19T03:23:12.482Z,1.60
2023-01-19T03:23:58.082Z,1.60
2023-01-19T03:24:44.488Z,1.80
2023-01-19T03:25:28.040Z,1.70
2023-01-19T03:26:13.737Z,1.70
2023-01-19T03:27:09.009Z,2.00
2023-01-19T03:27:53.967Z,1.60
2023-01-19T03:28:38.540Z,1.60
2023-01-19T03:30:13.076Z,1.60
2023-01-19T03:31:10.911Z,1.70
2023-01-19T03:31:56.515Z,2.70
2023-01-19T03:32:44.778Z,1.60
2023-01-19T03:33:33.122Z,1.70
2023-01-19T03:34:17.522Z,1.70
2023-01-19T03:35:02.762Z,1.70
2023-01-19T03:35:51.933Z,1.90
2023-01-19T03:36:47.733Z,1.60
2023-01-19T03:37:32.232Z,2.20
2023-01-19T03:38:17.000Z,1.50
2023-01-19T03:39:00.129Z,1.60
2023-01-19T03:39:42.601Z,2.40
2023-01-19T03:40:28.247Z,1.80
2023-01-19T03:41:13.600Z,1.60
2023-01-19T03:42:03.099Z,2.20
2023-01-19T03:42:45.974Z,1.80
2023-01-19T03:43:28.808Z,1.80
2023-01-19T03:44:12.095Z,1.90
2023-01-19T03:44:56.527Z,1.90
2023-01-19T03:45:39.867Z,1.90
2023-01-19T03:46:23.845Z,1.90
2023-01-19T03:47:08.750Z,4.20
2023-01-19T03:47:51.520Z,2.00
2023-01-19T03:48:33.956Z,2.00
2023-01-19T03:49:18.772Z,1.90
2023-01-19T03:50:03.620Z,2.00
2023-01-19T03:50:48.048Z,2.10
2023-01-19T03:51:30.231Z,1.90
2023-01-19T03:52:12.909Z,2.80
2023-01-19T03:53:12.694Z,2.10
2023-01-19T03:53:56.755Z,2.00
2023-01-19T03:54:38.929Z,2.10
2023-01-19T03:55:20.763Z,2.00
2023-01-19T03:56:03.582Z,2.10
2023-01-19T03:56:45.324Z,2.20
2023-01-19T03:57:27.277Z,1.90
2023-01-19T03:58:10.086Z,2.20
2023-01-19T03:58:52.429Z,2.00
2023-01-19T03:59:34.645Z,2.10
2023-01-19T04:00:16.703Z,2.10
2023-01-19T04:00:58.709Z,2.10
2023-01-19T04:01:42.975Z,2.10
2023-01-19T04:02:25.155Z,2.50
2023-01-19T04:03:12.837Z,2.10
2023-01-19T04:03:54.702Z,2.50
2023-01-19T04:04:36.748Z,2.60
2023-01-19T04:05:19.226Z,2.20
2023-01-19T04:06:01.095Z,2.00
2023-01-19T04:06:43.698Z,2.20
2023-01-19T04:07:25.552Z,2.20
2023-01-19T04:08:07.915Z,2.30
2023-01-19T04:08:51.274Z,2.30
2023-01-19T04:09:33.036Z,2.50
2023-01-19T04:10:16.061Z,2.30
2023-01-19T04:10:58.157Z,2.30
2023-01-19T04:11:39.908Z,2.30
2023-01-19T04:12:21.806Z,2.40
2023-01-19T04:13:04.812Z,2.20
2023-01-19T04:13:46.775Z,2.40
2023-01-19T04:14:28.833Z,2.30
2023-01-19T04:15:12.708Z,2.10
2023-01-19T04:15:56.932Z,2.40
2023-01-19T04:16:38.912Z,2.30
2023-01-19T04:17:20.814Z,2.40
2023-01-19T04:18:04.906Z,2.50
2023-01-19T04:18:47.228Z,2.40
2023-01-19T04:19:29.283Z,2.50
2023-01-19T04:20:11.254Z,2.40
2023-01-19T04:20:53.028Z,2.40
2023-01-19T04:21:35.203Z,2.40
2023-01-19T04:22:16.978Z,2.40
2023-01-19T04:23:02.275Z,2.30
2023-01-19T04:23:47.213Z,2.30
2023-01-19T04:24:29.015Z,2.80
2023-01-19T04:25:10.876Z,2.50
2023-01-19T04:25:58.859Z,2.40
2023-01-19T04:26:40.681Z,2.40
2023-01-19T04:27:22.460Z,2.40
2023-01-19T04:28:06.760Z,2.20
2023-01-19T04:28:48.620Z,2.40
2023-01-19T04:29:30.353Z,2.30
2023-01-19T04:30:14.756Z,2.50
2023-01-19T04:30:57.181Z,2.80
2023-01-19T04:31:38.951Z,2.50
2023-01-19T04:32:20.754Z,2.50
2023-01-19T04:33:02.821Z,2.40
2023-01-19T04:33:45.027Z,2.50
2023-01-19T04:34:26.868Z,2.50
2023-01-19T04:35:10.993Z,2.30
2023-01-19T04:35:56.117Z,2.30
2023-01-19T04:36:37.856Z,2.50
2023-01-19T04:37:21.931Z,2.60
2023-01-19T04:38:03.939Z,2.50
2023-01-19T04:38:46.782Z,2.60
2023-01-19T04:39:28.540Z,2.60
2023-01-19T04:40:11.108Z,2.80
2023-01-19T04:40:53.942Z,2.60
2023-01-19T04:41:35.782Z,2.60
2023-01-19T04:42:17.561Z,2.70
2023-01-19T04:42:59.771Z,2.80
2023-01-19T04:43:41.972Z,3.30
2023-01-19T04:44:24.119Z,3.00
2023-01-19T04:45:06.242Z,2.70
2023-01-19T04:45:48.607Z,2.70
2023-01-19T04:46:30.427Z,2.80
2023-01-19T04:47:12.379Z,2.80
2023-01-19T04:47:54.337Z,3.00
2023-01-19T04:48:36.158Z,2.90
2023-01-19T04:49:17.978Z,3.10
2023-01-19T04:49:59.878Z,3.00
2023-01-19T04:50:42.022Z,2.90
2023-01-19T04:51:23.975Z,3.10
2023-01-19T04:52:06.217Z,3.20
2023-01-19T04:52:48.868Z,2.90
2023-01-19T04:53:30.585Z,3.00
2023-01-19T04:54:12.465Z,2.80
2023-01-19T04:54:54.482Z,2.80
2023-01-19T04:55:40.143Z,2.80
2023-01-19T04:56:21.939Z,3.40
2023-01-19T04:57:03.977Z,3.00
2023-01-19T04:57:45.973Z,2.90
2023-01-19T04:58:29.881Z,2.90
2023-01-19T04:59:11.665Z,3.10
2023-01-19T05:00:36.508Z,3.10
2023-01-19T05:01:18.466Z,3.00
2023-01-19T05:02:00.430Z,3.00
2023-01-19T05:02:45.939Z,3.10
2023-01-19T05:03:30.282Z,3.90
2023-01-19T05:04:12.412Z,3.10
2023-01-19T05:04:54.415Z,3.00
2023-01-19T05:05:36.197Z,3.00
2023-01-19T05:06:18.014Z,2.80
2023-01-19T05:06:59.958Z,2.90
2023-01-19T05:07:43.100Z,2.70
2023-01-19T05:08:25.449Z,3.00
2023-01-19T05:09:13.105Z,3.00
2023-01-19T05:09:55.296Z,2.80
2023-01-19T05:10:37.098Z,3.10
2023-01-19T05:11:19.035Z,2.90
2023-01-19T05:12:01.148Z,2.90
2023-01-19T05:12:42.994Z,2.80
2023-01-19T05:13:25.005Z,3.10
2023-01-19T05:14:07.059Z,3.00
2023-01-19T05:14:48.818Z,3.00
2023-01-19T05:15:30.618Z,3.30
2023-01-19T05:16:14.039Z,3.30
2023-01-19T05:16:55.980Z,3.10
2023-01-19T05:17:38.113Z,3.10
2023-01-19T05:18:20.027Z,3.20
2023-01-19T05:19:01.914Z,3.40
2023-01-19T05:19:43.917Z,3.20
2023-01-19T05:20:25.668Z,3.10
2023-01-19T05:21:07.927Z,3.20
2023-01-19T05:21:50.143Z,3.20
2023-01-19T05:22:32.048Z,3.30
2023-01-19T05:23:16.158Z,3.10
2023-01-19T05:23:57.933Z,3.40
2023-01-19T05:24:41.793Z,3.10
2023-01-19T05:25:23.981Z,3.20
2023-01-19T05:26:06.107Z,3.10
2023-01-19T05:26:47.937Z,3.10
2023-01-19T05:27:29.727Z,3.30
2023-01-19T05:28:11.760Z,3.30
2023-01-19T05:28:53.666Z,3.10
2023-01-19T05:29:35.446Z,3.10
2023-01-19T05:30:17.732Z,3.30
2023-01-19T05:30:59.691Z,3.30
2023-01-19T05:31:41.547Z,3.10
2023-01-19T05:32:23.396Z,3.10
2023-01-19T05:33:05.524Z,3.10
2023-01-19T05:33:48.305Z,3.20
2023-01-19T05:34:30.103Z,3.20
2023-01-19T05:35:13.507Z,3.00
2023-01-19T05:35:58.127Z,3.30
2023-01-19T05:36:40.055Z,3.00
2023-01-19T05:37:22.057Z,3.30
2023-01-19T05:38:04.630Z,3.40
2023-01-19T05:38:46.570Z,3.80
2023-01-19T05:39:29.584Z,3.20
2023-01-19T05:40:11.840Z,3.20
2023-01-19T05:40:58.531Z,3.10
2023-01-19T05:41:42.039Z,3.10
2023-01-19T05:42:26.157Z,3.10
2023-01-19T05:43:10.316Z,3.00
2023-01-19T05:43:52.160Z,3.00
2023-01-19T05:44:34.082Z,3.30
2023-01-19T05:45:16.013Z,3.20
2023-01-19T05:45:57.851Z,3.10
2023-01-19T05:46:40.535Z,3.30
2023-01-19T05:47:22.563Z,2.90
2023-01-19T05:48:05.217Z,2.70
2023-01-19T05:48:47.053Z,3.30
2023-01-19T05:49:28.826Z,3.00
2023-01-19T05:50:11.099Z,4.20
2023-01-19T05:50:58.200Z,3.30
2023-01-19T05:51:45.228Z,2.90
2023-01-19T05:52:27.049Z,3.30
2023-01-19T05:53:09.123Z,3.20
2023-01-19T05:53:51.029Z,3.10
2023-01-19T05:54:35.013Z,2.80
2023-01-19T05:55:16.991Z,2.60
2023-01-19T05:56:46.879Z,3.20
2023-01-19T05:57:28.650Z,3.20
2023-01-19T05:58:10.521Z,3.00
2023-01-19T05:58:52.625Z,3.00
2023-01-19T05:59:34.550Z,3.00
2023-01-19T06:00:16.689Z,2.90
2023-01-19T06:01:03.197Z,3.10
2023-01-19T06:01:45.292Z,3.00
2023-01-19T06:02:30.141Z,2.90
2023-01-19T06:03:12.486Z,3.00
2023-01-19T06:03:54.579Z,3.10
2023-01-19T06:04:36.511Z,3.00
2023-01-19T06:05:18.315Z,3.10
2023-01-19T06:06:01.121Z,3.00
2023-01-19T06:06:45.025Z,3.10
2023-01-19T06:07:29.085Z,3.00
2023-01-19T06:08:11.203Z,2.80
2023-01-19T06:08:55.561Z,2.80
2023-01-19T06:09:37.371Z,2.90
2023-01-19T06:10:19.238Z,2.80
2023-01-19T06:11:01.258Z,2.80
2023-01-19T06:11:44.425Z,2.80
2023-01-19T06:12:26.231Z,2.80
2023-01-19T06:13:09.773Z,2.60
2023-01-19T06:13:51.767Z,3.10
2023-01-19T06:14:33.692Z,2.80
2023-01-19T06:15:15.657Z,2.90
2023-01-19T06:15:58.971Z,2.70
2023-01-19T06:16:43.457Z,2.90
2023-01-19T06:17:25.312Z,2.60
2023-01-19T06:18:07.202Z,2.90
2023-01-19T06:18:48.950Z,2.90
2023-01-19T06:19:30.753Z,3.10
2023-01-19T06:20:14.195Z,2.90
2023-01-19T06:20:58.839Z,2.80
2023-01-19T06:21:40.841Z,2.80
2023-01-19T06:22:25.260Z,2.70
2023-01-19T06:23:07.311Z,2.70
2023-01-19T06:23:51.168Z,2.70
2023-01-19T06:24:33.006Z,2.80
2023-01-19T06:25:14.836Z,2.90
2023-01-19T06:25:56.790Z,2.60
2023-01-19T06:26:38.568Z,2.80
2023-01-19T06:27:20.296Z,2.70
2023-01-19T06:28:02.058Z,2.50
2023-01-19T06:28:43.880Z,2.50
2023-01-19T06:29:28.023Z,2.70
2023-01-19T06:30:13.546Z,2.70
2023-01-19T06:30:56.503Z,2.50
2023-01-19T06:31:38.370Z,2.70
2023-01-19T06:32:20.459Z,2.70
2023-01-19T06:33:02.578Z,3.30
2023-01-19T06:33:44.521Z,2.50
2023-01-19T06:34:28.798Z,2.50
2023-01-19T06:35:13.702Z,2.60
2023-01-19T06:35:56.309Z,2.40
2023-01-19T06:36:38.783Z,2.50
2023-01-19T06:37:20.537Z,2.70
2023-01-19T06:38:02.436Z,2.60
2023-01-19T06:38:44.655Z,2.60
2023-01-19T06:39:27.331Z,2.60
2023-01-19T06:40:09.809Z,2.70
2023-01-19T06:40:58.711Z,2.20
2023-01-19T06:41:40.774Z,2.60
2023-01-19T06:42:22.497Z,2.60
2023-01-19T06:43:04.395Z,2.50
2023-01-19T06:43:46.288Z,2.60
2023-01-19T06:44:30.217Z,2.40
2023-01-19T06:45:12.032Z,2.70
2023-01-19T06:45:54.661Z,2.70
2023-01-19T06:46:36.446Z,2.70
2023-01-19T06:47:18.742Z,2.70
2023-01-19T06:48:01.432Z,3.00
2023-01-19T06:48:45.466Z,2.60
2023-01-19T06:49:27.357Z,2.70
2023-01-19T06:50:09.857Z,2.70
2023-01-19T06:50:51.730Z,2.90
2023-01-19T06:51:33.854Z,2.70
2023-01-19T06:52:17.472Z,2.60
2023-01-19T06:52:59.698Z,2.60
2023-01-19T06:53:41.725Z,3.10
2023-01-19T06:54:23.443Z,2.70
2023-01-19T06:55:05.707Z,2.70
2023-01-19T06:55:47.681Z,2.60
2023-01-19T06:56:29.487Z,2.90
2023-01-19T06:57:11.924Z,2.70
2023-01-19T06:57:58.464Z,2.50
2023-01-19T06:58:42.146Z,2.70
2023-01-19T06:59:25.826Z,2.60
2023-01-19T07:00:09.095Z,2.70
2023-01-19T07:00:51.712Z,2.60
2023-01-19T07:01:33.639Z,2.70
2023-01-19T07:02:26.489Z,2.80
2023-01-19T07:03:18.137Z,2.70
2023-01-19T07:03:59.878Z,2.50
2023-01-19T07:04:41.725Z,2.60
2023-01-19T07:05:24.427Z,2.60
2023-01-19T07:06:09.049Z,2.50
2023-01-19T07:06:51.086Z,2.60
2023-01-19T07:07:32.882Z,2.50
2023-01-19T07:08:15.660Z,2.70
2023-01-19T07:08:57.987Z,2.60
2023-01-19T07:09:41.864Z,2.50
2023-01-19T07:10:24.956Z,2.50
2023-01-19T07:11:25.200Z,2.40
2023-01-19T07:12:12.359Z,2.60
2023-01-19T07:12:57.462Z,2.40
2023-01-19T07:13:40.345Z,2.60
2023-01-19T07:14:22.517Z,2.70
2023-01-19T07:15:07.824Z,2.70
2023-01-19T07:15:49.583Z,2.50
2023-01-19T07:16:31.815Z,2.60
2023-01-19T07:17:13.584Z,2.60
2023-01-19T07:17:58.856Z,2.70
2023-01-19T07:18:40.947Z,2.50
2023-01-19T07:19:22.886Z,2.80
2023-01-19T07:20:07.316Z,2.80
2023-01-19T07:20:51.593Z,2.70
2023-01-19T07:21:35.688Z,2.90
2023-01-19T07:22:17.558Z,2.50
2023-01-19T07:22:59.627Z,2.60
2023-01-19T07:23:45.806Z,2.60
2023-01-19T07:24:27.615Z,2.70
2023-01-19T07:25:09.782Z,2.70
2023-01-19T07:25:51.494Z,2.80
2023-01-19T07:26:35.306Z,2.50
2023-01-19T07:27:17.042Z,2.50
2023-01-19T07:28:02.084Z,2.50
2023-01-19T07:28:44.012Z,2.60
2023-01-19T07:29:25.969Z,1.30
2023-01-19T07:30:09.196Z,2.90
2023-01-19T07:30:55.594Z,2.80
2023-01-19T07:31:37.741Z,2.80
2023-01-19T07:32:19.625Z,3.20
2023-01-19T07:33:02.865Z,2.80
2023-01-19T07:33:45.538Z,2.80
2023-01-19T07:35:10.341Z,2.50
2023-01-19T07:35:53.030Z,2.60
2023-01-19T07:36:36.054Z,2.70
2023-01-19T07:37:17.765Z,2.80
2023-01-19T07:37:59.709Z,2.60
2023-01-19T07:38:41.432Z,2.80
2023-01-19T07:39:23.276Z,2.70
2023-01-19T07:40:05.744Z,2.70
2023-01-19T07:40:47.557Z,2.80
2023-01-19T07:41:29.266Z,2.50
2023-01-19T07:42:11.045Z,2.60
2023-01-19T07:42:52.932Z,2.80
2023-01-19T07:43:35.299Z,2.50
2023-01-19T07:44:17.102Z,2.20
2023-01-19T07:44:58.839Z,3.20
2023-01-19T07:45:40.715Z,2.80
2023-01-19T07:46:22.664Z,2.90
2023-01-19T07:47:07.491Z,2.70
2023-01-19T07:47:50.033Z,2.80
2023-01-19T07:48:31.824Z,2.80
2023-01-19T07:49:13.641Z,2.80
2023-01-19T07:49:55.700Z,2.90
2023-01-19T07:50:37.570Z,3.20
2023-01-19T07:51:19.316Z,2.70
2023-01-19T07:52:01.201Z,2.70
2023-01-19T07:52:43.206Z,2.60
2023-01-19T07:53:25.160Z,2.70
2023-01-19T07:54:10.757Z,2.80
2023-01-19T07:54:52.655Z,2.70
2023-01-19T07:55:35.008Z,2.90
2023-01-19T07:56:16.908Z,2.90
2023-01-19T07:57:00.736Z,2.80
2023-01-19T07:57:42.613Z,2.90
2023-01-19T07:58:25.320Z,2.70
2023-01-19T07:59:09.644Z,2.60
2023-01-19T07:59:51.410Z,2.90
2023-01-19T08:00:37.988Z,2.80
2023-01-19T08:01:19.873Z,2.70
2023-01-19T08:02:01.816Z,2.70
2023-01-19T08:02:44.050Z,2.80
2023-01-19T08:03:26.003Z,2.70
2023-01-19T08:04:07.826Z,2.70
2023-01-19T08:04:49.656Z,2.70
2023-01-19T08:05:34.334Z,2.80
2023-01-19T08:06:26.803Z,2.90
2023-01-19T08:07:09.662Z,2.90
2023-01-19T08:07:53.340Z,2.80
2023-01-19T08:08:36.022Z,2.80
2023-01-19T08:09:18.175Z,2.80
2023-01-19T08:10:00.104Z,2.90
2023-01-19T08:10:42.046Z,2.90
2023-01-19T08:11:23.936Z,2.90
2023-01-19T08:12:06.029Z,3.00
2023-01-19T08:12:47.806Z,2.90
2023-01-19T08:13:29.733Z,2.80
2023-01-19T08:14:11.751Z,3.00
2023-01-19T08:14:53.828Z,2.90
2023-01-19T08:15:35.735Z,2.80
2023-01-19T08:16:17.623Z,2.90
2023-01-19T08:17:00.656Z,3.00
2023-01-19T08:17:42.437Z,2.90
2023-01-19T08:18:24.256Z,2.80
2023-01-19T08:19:06.275Z,2.80
2023-01-19T08:19:48.145Z,3.00
2023-01-19T08:20:30.258Z,2.90
2023-01-19T08:21:12.204Z,2.60
2023-01-19T08:22:38.865Z,2.80
2023-01-19T08:23:20.745Z,2.80
2023-01-19T08:24:45.144Z,3.00
2023-01-19T08:25:38.237Z,3.00
2023-01-19T08:26:29.772Z,3.00
2023-01-19T08:27:14.527Z,3.20
2023-01-19T08:27:56.731Z,3.00
2023-01-19T08:28:40.992Z,2.90
2023-01-19T08:29:22.819Z,3.10
2023-01-19T08:30:05.129Z,3.20
2023-01-19T08:30:54.000Z,3.10
2023-01-19T08:31:36.233Z,2.60
2023-01-19T08:32:18.329Z,3.40
2023-01-19T08:33:09.483Z,3.10
2023-01-19T08:33:51.408Z,3.00
2023-01-19T08:34:33.740Z,3.10
2023-01-19T08:35:15.782Z,3.00
2023-01-19T08:35:58.238Z,3.20
2023-01-19T08:36:40.169Z,3.00
2023-01-19T08:37:22.024Z,3.10
2023-01-19T08:38:05.419Z,3.20
2023-01-19T08:38:50.040Z,3.00
2023-01-19T08:39:31.846Z,2.90
2023-01-19T08:40:56.022Z,2.90
2023-01-19T08:41:38.042Z,3.20
2023-01-19T08:42:19.957Z,3.10
2023-01-19T08:43:10.062Z,3.00
2023-01-19T08:43:51.949Z,3.10
2023-01-19T08:44:34.005Z,3.30
2023-01-19T08:45:15.938Z,3.20
2023-01-19T08:46:00.136Z,2.90
2023-01-19T08:46:42.320Z,3.20
2023-01-19T08:47:24.211Z,3.30
2023-01-19T08:48:06.540Z,3.40
2023-01-19T08:48:49.378Z,3.50
2023-01-19T08:49:31.475Z,3.40
2023-01-19T08:50:13.827Z,3.20
2023-01-19T08:50:55.851Z,3.40
2023-01-19T08:51:38.238Z,3.30
2023-01-19T08:52:20.145Z,3.30
2023-01-19T08:53:03.681Z,3.20
2023-01-19T08:53:45.776Z,3.20
2023-01-19T08:54:27.518Z,3.00
2023-01-19T08:55:11.247Z,3.20
2023-01-19T08:56:01.296Z,1.30
2023-01-19T08:56:43.866Z,3.40
2023-01-19T08:57:29.731Z,3.30
2023-01-19T08:58:11.521Z,3.40
2023-01-19T08:59:07.617Z,3.50
2023-01-19T09:00:34.362Z,3.40
2023-01-19T09:01:20.535Z,3.30
2023-01-19T09:02:02.752Z,3.40
2023-01-19T09:02:44.721Z,3.40
2023-01-19T09:03:26.643Z,3.20
2023-01-19T09:04:08.958Z,3.40
2023-01-19T09:04:51.866Z,3.30
2023-01-19T09:05:37.368Z,3.30
2023-01-19T09:06:19.657Z,3.50
2023-01-19T09:07:01.465Z,3.30
2023-01-19T09:07:49.974Z,3.30
2023-01-19T09:08:31.948Z,3.30
2023-01-19T09:09:14.228Z,3.40
2023-01-19T09:09:56.085Z,3.40
2023-01-19T09:10:39.351Z,3.50
2023-01-19T09:11:21.169Z,3.50
2023-01-19T09:12:03.072Z,3.40
2023-01-19T09:12:46.360Z,3.30
2023-01-19T09:13:28.387Z,3.50
2023-01-19T09:14:10.139Z,3.70
2023-01-19T09:14:51.978Z,3.60
2023-01-19T09:15:35.876Z,3.70
2023-01-19T09:16:18.170Z,3.60
2023-01-19T09:17:00.100Z,3.60
2023-01-19T09:17:45.025Z,3.60
2023-01-19T09:18:26.918Z,3.60
2023-01-19T09:19:09.134Z,3.60
2023-01-19T09:19:50.967Z,3.70
2023-01-19T09:20:34.741Z,3.90
2023-01-19T09:21:16.640Z,3.50
2023-01-19T09:21:59.713Z,3.70
2023-01-19T09:22:41.494Z,3.70
2023-01-19T09:23:23.678Z,3.60
2023-01-19T09:24:05.915Z,3.80
2023-01-19T09:24:47.764Z,3.60
2023-01-19T09:26:12.038Z,3.80
2023-01-19T09:26:56.425Z,3.50
2023-01-19T09:27:38.274Z,3.70
2023-01-19T09:28:20.132Z,3.50
2023-01-19T09:29:02.003Z,3.50
2023-01-19T09:29:50.643Z,3.60
2023-01-19T09:30:33.202Z,3.80
2023-01-19T09:31:15.438Z,3.70
2023-01-19T09:31:57.728Z,3.40
2023-01-19T09:32:45.544Z,3.80
2023-01-19T09:33:30.093Z,3.90
2023-01-19T09:34:12.689Z,3.80
2023-01-19T09:34:56.479Z,3.80
2023-01-19T09:35:39.710Z,3.60
2023-01-19T09:36:21.574Z,3.80
2023-01-19T09:37:04.005Z,3.70
2023-01-19T09:38:34.133Z,3.70
2023-01-19T09:39:16.191Z,3.80
2023-01-19T09:39:58.114Z,3.70
2023-01-19T09:40:54.525Z,3.60
2023-01-19T09:41:38.727Z,3.60
2023-01-19T09:42:46.389Z,3.70
2023-01-19T09:43:31.164Z,3.70
2023-01-19T09:44:32.627Z,3.70
2023-01-19T09:45:20.012Z,3.60
2023-01-19T09:46:26.104Z,3.70
2023-01-19T09:47:58.671Z,4.00
2023-01-19T09:48:55.339Z,3.80
2023-01-19T09:49:41.217Z,3.90
2023-01-19T09:50:31.524Z,3.80
2023-01-19T09:51:28.478Z,3.90
2023-01-19T09:52:13.548Z,4.00
2023-01-19T09:53:02.287Z,4.00
2023-01-19T09:53:56.724Z,3.90
2023-01-19T09:54:54.195Z,3.90
2023-01-19T09:55:36.125Z,3.90
2023-01-19T09:57:02.231Z,3.80
2023-01-19T09:57:45.165Z,3.70
2023-01-19T09:59:20.624Z,4.10
2023-01-19T10:00:10.211Z,3.70
2023-01-19T10:00:59.172Z,3.90
2023-01-19T10:01:46.889Z,3.80
2023-01-19T10:02:45.128Z,3.80
2023-01-19T10:03:27.188Z,3.60
2023-01-19T10:04:23.769Z,3.70
2023-01-19T10:05:23.957Z,3.40
2023-01-19T10:06:10.500Z,3.80
2023-01-19T10:06:57.494Z,3.80
2023-01-19T10:07:42.124Z,3.00